Lapaz, Indiana
Current Conditions -  °F | °C
As of 3:54 AM on Tuesday 21 Oct 2014 (Local Time) from KSBN Reporting Station
Overcast Overcast  
Wind Chill: 46°   Ceiling: 4500
Heat Index: 49°   Visibility: 10mi
Dew Point: 45°   Wind: 7mph
Humidity: 86%   Direction: 350°N
Pressure: 29.98"   Gusts: NA
Location:  41.46°N, 86.31°W
Report Text: KSBN 210754Z 35006KT 10SM SCT037 OVC045 09/07 A2998 RMK AO2 SLP153 T00940072
Loading
Personal Weather Stations






























Interactive Weather Map
Tropical Storm Tracking
New forecast layout! Learn more

10-Day Weather Forecast

Advertisements
Track Severe Weather on mobile